createdAt,value
2023-01-19T00:00:17.993Z,0.00
2023-01-19T00:01:17.919Z,0.00
2023-01-19T00:02:17.889Z,0.00
2023-01-19T00:03:17.946Z,0.00
2023-01-19T00:04:17.878Z,0.00
2023-01-19T00:05:17.851Z,0.00
2023-01-19T00:06:17.963Z,0.00
2023-01-19T00:07:17.830Z,0.00
2023-01-19T00:08:17.847Z,0.00
2023-01-19T00:09:17.808Z,0.00
2023-01-19T00:10:17.797Z,0.00
2023-01-19T00:11:17.812Z,0.00
2023-01-19T00:12:17.793Z,0.00
2023-01-19T00:13:17.771Z,0.00
2023-01-19T00:14:17.760Z,0.00
2023-01-19T00:15:17.741Z,0.00
2023-01-19T00:16:17.766Z,0.00
2023-01-19T00:17:17.745Z,0.00
2023-01-19T00:18:17.720Z,0.00
2023-01-19T00:19:17.700Z,0.00
2023-01-19T00:20:17.703Z,0.00
2023-01-19T00:21:17.677Z,0.00
2023-01-19T00:22:17.660Z,0.00
2023-01-19T00:23:17.673Z,0.00
2023-01-19T00:24:17.639Z,0.00
2023-01-19T00:25:17.629Z,0.00
2023-01-19T00:26:17.640Z,0.00
2023-01-19T00:27:17.612Z,0.00
2023-01-19T00:28:17.599Z,0.00
2023-01-19T00:29:17.613Z,0.00
2023-01-19T00:30:17.581Z,0.00
2023-01-19T00:31:17.617Z,0.00
2023-01-19T00:32:17.565Z,0.00
2023-01-19T00:33:17.587Z,0.00
2023-01-19T00:34:17.531Z,0.00
2023-01-19T00:35:17.532Z,0.00
2023-01-19T00:36:17.520Z,0.00
2023-01-19T00:37:17.500Z,0.00
2023-01-19T00:38:17.511Z,0.00
2023-01-19T00:39:17.487Z,0.00
2023-01-19T00:40:17.486Z,0.00
2023-01-19T00:41:17.467Z,0.00
2023-01-19T00:42:17.451Z,0.00
2023-01-19T00:43:17.472Z,0.00
2023-01-19T00:44:17.433Z,0.00
2023-01-19T00:45:17.421Z,0.00
2023-01-19T00:46:17.403Z,0.00
2023-01-19T00:47:17.401Z,0.00
2023-01-19T00:48:17.412Z,0.00
2023-01-19T00:49:17.379Z,0.00
2023-01-19T00:50:17.358Z,0.00
2023-01-19T00:51:17.381Z,0.00
2023-01-19T00:52:17.338Z,0.00
2023-01-19T00:53:17.356Z,0.00
2023-01-19T00:54:17.328Z,0.00
2023-01-19T00:55:17.310Z,0.00
2023-01-19T00:56:17.317Z,0.00
2023-01-19T00:57:17.288Z,0.00
2023-01-19T00:58:17.297Z,0.00
2023-01-19T00:59:17.269Z,0.00
2023-01-19T01:00:17.271Z,0.00
2023-01-19T01:01:17.367Z,0.00
2023-01-19T01:02:17.504Z,0.00
2023-01-19T01:03:17.270Z,0.00
2023-01-19T01:04:17.209Z,0.00
2023-01-19T01:05:17.209Z,0.00
2023-01-19T01:06:17.201Z,0.00
2023-01-19T01:07:17.194Z,0.00
2023-01-19T01:08:17.171Z,0.00
2023-01-19T01:09:17.186Z,0.00
2023-01-19T01:10:17.152Z,0.00
2023-01-19T01:11:17.136Z,0.00
2023-01-19T01:12:17.130Z,0.00
2023-01-19T01:13:21.267Z,0.00
2023-01-19T01:14:18.140Z,0.00
2023-01-19T01:15:17.089Z,0.00
2023-01-19T01:16:17.113Z,0.00
2023-01-19T01:17:17.072Z,0.00
2023-01-19T01:18:17.068Z,0.00
2023-01-19T01:19:17.063Z,0.00
2023-01-19T01:20:17.069Z,0.00
2023-01-19T01:21:17.037Z,0.00
2023-01-19T01:22:17.021Z,0.00
2023-01-19T01:23:17.016Z,0.00
2023-01-19T01:24:17.008Z,0.00
2023-01-19T01:25:16.992Z,0.00
2023-01-19T01:26:17.010Z,0.00
2023-01-19T01:27:16.968Z,0.00
2023-01-19T01:28:16.960Z,0.00
2023-01-19T01:29:16.949Z,0.00
2023-01-19T01:30:16.940Z,0.00
2023-01-19T01:31:16.989Z,0.00
2023-01-19T01:32:16.932Z,0.00
2023-01-19T01:33:41.044Z,0.00
2023-01-19T01:34:17.891Z,0.00
2023-01-19T01:35:16.906Z,0.00
2023-01-19T01:36:16.868Z,0.00
2023-01-19T01:37:16.861Z,0.00
2023-01-19T01:38:16.892Z,0.00
2023-01-19T01:39:24.678Z,0.00
2023-01-19T01:40:16.837Z,0.00
2023-01-19T01:41:16.818Z,0.00
2023-01-19T01:42:16.807Z,0.00
2023-01-19T01:43:16.818Z,0.00
2023-01-19T01:44:16.802Z,0.00
2023-01-19T01:45:16.772Z,0.00
2023-01-19T01:46:16.819Z,0.00
2023-01-19T01:47:16.750Z,0.00
2023-01-19T01:48:16.750Z,0.00
2023-01-19T01:49:16.774Z,0.00
2023-01-19T01:50:16.729Z,0.00
2023-01-19T01:51:16.714Z,0.00
2023-01-19T01:52:16.706Z,0.00
2023-01-19T01:53:16.699Z,0.00
2023-01-19T01:54:16.702Z,0.00
2023-01-19T01:55:16.689Z,0.00
2023-01-19T01:56:16.665Z,0.00
2023-01-19T01:57:16.680Z,0.00
2023-01-19T01:58:16.632Z,0.00
2023-01-19T01:59:16.628Z,0.00
2023-01-19T02:00:16.635Z,0.00
2023-01-19T02:01:16.711Z,0.00
2023-01-19T02:02:16.619Z,0.00
2023-01-19T02:03:16.605Z,0.00
2023-01-19T02:04:16.571Z,0.00
2023-01-19T02:05:16.561Z,0.00
2023-01-19T02:06:16.549Z,0.00
2023-01-19T02:07:16.532Z,0.00
2023-01-19T02:08:16.552Z,0.00
2023-01-19T02:09:16.523Z,0.00
2023-01-19T02:10:16.510Z,0.00
2023-01-19T02:11:16.500Z,0.00
2023-01-19T02:12:16.523Z,0.00
2023-01-19T02:13:16.490Z,0.00
2023-01-19T02:14:16.470Z,0.00
2023-01-19T02:15:16.450Z,0.00
2023-01-19T02:16:16.477Z,0.00
2023-01-19T02:17:16.430Z,0.00
2023-01-19T02:18:16.443Z,0.00
2023-01-19T02:19:16.412Z,0.00
2023-01-19T02:20:16.412Z,0.00
2023-01-19T02:21:16.397Z,0.00
2023-01-19T02:22:16.400Z,0.00
2023-01-19T02:23:16.373Z,0.00
2023-01-19T02:24:16.379Z,0.00
2023-01-19T02:25:16.341Z,0.00
2023-01-19T02:26:16.337Z,0.00
2023-01-19T02:27:16.323Z,0.00
2023-01-19T02:28:16.310Z,0.00
2023-01-19T02:29:16.337Z,0.00
2023-01-19T02:30:16.284Z,0.00
2023-01-19T02:31:16.282Z,0.00
2023-01-19T02:32:16.303Z,0.00
2023-01-19T02:33:16.269Z,0.00
2023-01-19T02:34:16.262Z,0.00
2023-01-19T02:35:16.260Z,0.00
2023-01-19T02:36:16.233Z,0.00
2023-01-19T02:37:16.217Z,0.00
2023-01-19T02:38:16.209Z,0.00
2023-01-19T02:39:16.207Z,0.00
2023-01-19T02:40:16.215Z,0.00
2023-01-19T02:41:16.184Z,0.00
2023-01-19T02:42:16.168Z,0.00
2023-01-19T02:43:16.153Z,0.00
2023-01-19T02:44:16.148Z,0.00
2023-01-19T02:45:16.132Z,0.00
2023-01-19T02:46:16.164Z,0.00
2023-01-19T02:47:16.117Z,0.00
2023-01-19T02:48:16.100Z,0.00
2023-01-19T02:49:16.084Z,0.00
2023-01-19T02:50:16.097Z,0.00
2023-01-19T02:51:16.091Z,0.00
2023-01-19T02:52:16.061Z,0.00
2023-01-19T02:53:16.057Z,0.00
2023-01-19T02:54:16.048Z,0.00
2023-01-19T02:55:16.031Z,0.00
2023-01-19T02:56:16.041Z,0.00
2023-01-19T02:57:16.000Z,0.00
2023-01-19T02:58:15.990Z,0.00
2023-01-19T02:59:15.991Z,0.00
2023-01-19T03:00:15.982Z,0.00
2023-01-19T03:01:16.048Z,0.00
2023-01-19T03:02:16.000Z,0.00
2023-01-19T03:03:15.946Z,0.00
2023-01-19T03:04:15.943Z,0.00
2023-01-19T03:05:15.920Z,0.00
2023-01-19T03:06:15.931Z,0.00
2023-01-19T03:07:15.890Z,0.00
2023-01-19T03:08:15.878Z,0.00
2023-01-19T03:09:15.867Z,0.00
2023-01-19T03:10:15.860Z,0.00
2023-01-19T03:11:15.873Z,0.00
2023-01-19T03:12:15.846Z,0.00
2023-01-19T03:13:15.830Z,0.00
2023-01-19T03:14:15.820Z,0.00
2023-01-19T03:15:15.810Z,0.00
2023-01-19T03:16:15.837Z,0.00
2023-01-19T03:17:15.780Z,0.00
2023-01-19T03:18:15.770Z,0.00
2023-01-19T03:19:15.767Z,0.00
2023-01-19T03:20:15.759Z,0.00
2023-01-19T03:21:15.738Z,0.00
2023-01-19T03:22:15.750Z,0.00
2023-01-19T03:23:15.726Z,0.00
2023-01-19T03:24:15.723Z,0.00
2023-01-19T03:25:15.702Z,0.00
2023-01-19T03:26:15.691Z,0.00
2023-01-19T03:27:15.709Z,0.00
2023-01-19T03:28:15.669Z,0.00
2023-01-19T03:29:15.654Z,0.00
2023-01-19T03:30:15.644Z,0.00
2023-01-19T03:31:15.652Z,0.00
2023-01-19T03:32:15.638Z,0.00
2023-01-19T03:33:15.631Z,0.00
2023-01-19T03:34:15.600Z,0.00
2023-01-19T03:35:15.591Z,0.00
2023-01-19T03:36:15.609Z,0.00
2023-01-19T03:37:15.599Z,0.00
2023-01-19T03:38:15.559Z,0.00
2023-01-19T03:39:15.575Z,0.00
2023-01-19T03:40:15.538Z,0.00
2023-01-19T03:41:15.556Z,0.00
2023-01-19T03:42:15.548Z,0.00
2023-01-19T03:43:15.510Z,0.00
2023-01-19T03:44:15.521Z,0.00
2023-01-19T03:45:15.488Z,0.00
2023-01-19T03:46:15.519Z,0.00
2023-01-19T03:47:15.478Z,0.00
2023-01-19T03:48:15.466Z,0.00
2023-01-19T03:49:15.439Z,0.00
2023-01-19T03:50:15.448Z,0.00
2023-01-19T03:51:15.418Z,0.00
2023-01-19T03:52:15.408Z,0.00
2023-01-19T03:53:15.398Z,0.00
2023-01-19T03:54:15.386Z,0.00
2023-01-19T03:55:15.415Z,0.00
2023-01-19T03:56:15.378Z,0.00
2023-01-19T03:57:15.416Z,0.00
2023-01-19T03:58:15.353Z,0.00
2023-01-19T03:59:15.330Z,0.00
2023-01-19T04:00:15.407Z,0.00
2023-01-19T04:01:15.462Z,0.00
2023-01-19T04:02:15.336Z,0.00
2023-01-19T04:03:15.290Z,0.00
2023-01-19T04:04:15.279Z,0.00
2023-01-19T04:05:15.269Z,0.00
2023-01-19T04:06:15.267Z,0.00
2023-01-19T04:07:15.268Z,0.00
2023-01-19T04:08:15.245Z,0.00
2023-01-19T04:09:15.248Z,0.00
2023-01-19T04:10:15.218Z,0.00
2023-01-19T04:11:15.209Z,0.00
2023-01-19T04:12:15.189Z,0.00
2023-01-19T04:13:15.178Z,0.00
2023-01-19T04:14:36.225Z,0.00
2023-01-19T04:15:15.159Z,0.00
2023-01-19T04:16:15.235Z,0.00
2023-01-19T04:17:15.139Z,0.00
2023-01-19T04:18:15.132Z,0.00
2023-01-19T04:19:15.140Z,0.00
2023-01-19T04:20:15.129Z,0.00
2023-01-19T04:21:15.098Z,0.00
2023-01-19T04:22:15.109Z,0.00
2023-01-19T04:23:15.076Z,0.00
2023-01-19T04:24:15.113Z,0.00
2023-01-19T04:25:15.065Z,0.00
2023-01-19T04:26:15.074Z,0.00
2023-01-19T04:27:15.040Z,0.00
2023-01-19T04:28:15.033Z,0.00
2023-01-19T04:29:15.039Z,0.00
2023-01-19T04:30:15.006Z,0.00
2023-01-19T04:31:15.023Z,0.00
2023-01-19T04:32:14.994Z,0.00
2023-01-19T04:33:15.015Z,0.00
2023-01-19T04:34:14.957Z,0.00
2023-01-19T04:35:14.947Z,0.00
2023-01-19T04:36:14.947Z,0.00
2023-01-19T04:37:14.934Z,0.00
2023-01-19T04:38:14.950Z,0.00
2023-01-19T04:39:14.934Z,0.00
2023-01-19T04:40:14.900Z,0.00
2023-01-19T04:41:14.890Z,0.00
2023-01-19T04:42:14.868Z,0.00
2023-01-19T04:43:14.864Z,0.00
2023-01-19T04:44:14.883Z,0.00
2023-01-19T04:45:14.836Z,0.00
2023-01-19T04:46:14.842Z,0.00
2023-01-19T04:47:14.817Z,0.00
2023-01-19T04:48:14.812Z,0.00
2023-01-19T04:49:14.816Z,0.00
2023-01-19T04:50:14.791Z,0.00
2023-01-19T04:51:14.775Z,0.00
2023-01-19T04:52:14.771Z,0.00
2023-01-19T04:53:14.748Z,0.00
2023-01-19T04:54:14.774Z,0.00
2023-01-19T04:55:14.765Z,0.00
2023-01-19T04:56:14.734Z,0.00
2023-01-19T04:57:14.707Z,0.00
2023-01-19T04:58:14.698Z,0.00
2023-01-19T04:59:14.694Z,0.00
2023-01-19T05:00:14.685Z,0.00
2023-01-19T05:01:14.687Z,0.00
2023-01-19T05:02:14.676Z,0.00
2023-01-19T05:03:14.690Z,0.00
2023-01-19T05:04:14.660Z,0.00
2023-01-19T05:05:14.644Z,0.00
2023-01-19T05:06:14.618Z,0.00
2023-01-19T05:07:14.608Z,0.00
2023-01-19T05:08:14.597Z,0.00
2023-01-19T05:09:14.581Z,0.00
2023-01-19T05:10:14.597Z,0.00
2023-01-19T05:11:14.560Z,0.00
2023-01-19T05:12:14.567Z,0.00
2023-01-19T05:13:14.541Z,0.00
2023-01-19T05:14:14.536Z,0.00
2023-01-19T05:15:14.518Z,0.00
2023-01-19T05:16:14.540Z,0.00
2023-01-19T05:17:14.503Z,0.00
2023-01-19T05:18:14.486Z,0.00
2023-01-19T05:19:14.478Z,0.00
2023-01-19T05:20:16.380Z,0.00
2023-01-19T05:21:14.460Z,0.00
2023-01-19T05:22:14.445Z,0.00
2023-01-19T05:23:14.431Z,0.00
2023-01-19T05:24:14.426Z,0.00
2023-01-19T05:25:14.448Z,0.00
2023-01-19T05:26:14.411Z,0.00
2023-01-19T05:27:14.395Z,0.00
2023-01-19T05:28:14.376Z,0.00
2023-01-19T05:29:14.369Z,0.00
2023-01-19T05:30:14.380Z,0.00
2023-01-19T05:31:14.456Z,0.00
2023-01-19T05:32:14.344Z,0.00
2023-01-19T05:33:14.324Z,0.00
2023-01-19T05:34:14.336Z,0.00
2023-01-19T05:35:15.409Z,0.00
2023-01-19T05:36:14.434Z,0.00
2023-01-19T05:37:14.306Z,0.00
2023-01-19T05:38:15.665Z,0.00
2023-01-19T05:39:14.257Z,0.00
2023-01-19T05:40:14.247Z,0.00
2023-01-19T05:41:14.261Z,0.00
2023-01-19T05:42:14.257Z,0.00
2023-01-19T05:43:14.214Z,0.00
2023-01-19T05:44:14.294Z,0.00
2023-01-19T05:45:14.195Z,0.00
2023-01-19T05:46:14.271Z,0.00
2023-01-19T05:47:14.195Z,0.00
2023-01-19T05:48:14.156Z,0.00
2023-01-19T05:49:14.153Z,0.00
2023-01-19T05:50:14.136Z,0.00
2023-01-19T05:51:14.125Z,0.00
2023-01-19T05:52:14.124Z,0.00
2023-01-19T05:53:14.128Z,0.00
2023-01-19T05:54:14.106Z,0.00
2023-01-19T05:55:15.462Z,0.00
2023-01-19T05:56:14.080Z,0.00
2023-01-19T05:57:14.068Z,0.00
2023-01-19T05:58:14.052Z,0.00
2023-01-19T05:59:14.062Z,0.00
2023-01-19T06:00:14.025Z,0.00
2023-01-19T06:01:14.031Z,0.00
2023-01-19T06:02:14.059Z,0.00
2023-01-19T06:03:14.049Z,0.00
2023-01-19T06:04:14.001Z,0.00
2023-01-19T06:05:14.019Z,0.00
2023-01-19T06:06:13.974Z,0.00
2023-01-19T06:07:13.956Z,0.00
2023-01-19T06:08:13.966Z,0.00
2023-01-19T06:09:13.935Z,0.00
2023-01-19T06:10:13.925Z,0.00
2023-01-19T06:11:13.905Z,0.00
2023-01-19T06:12:13.906Z,0.00
2023-01-19T06:13:13.913Z,0.00
2023-01-19T06:14:13.875Z,0.00
2023-01-19T06:15:13.866Z,0.00
2023-01-19T06:16:13.886Z,0.00
2023-01-19T06:17:13.843Z,0.00
2023-01-19T06:18:13.840Z,0.00
2023-01-19T06:19:13.845Z,0.00
2023-01-19T06:20:13.813Z,0.00
2023-01-19T06:21:13.802Z,0.00
2023-01-19T06:22:13.798Z,0.00
2023-01-19T06:23:13.775Z,0.00
2023-01-19T06:24:14.544Z,0.00
2023-01-19T06:25:13.763Z,0.00
2023-01-19T06:26:13.781Z,0.00
2023-01-19T06:27:13.746Z,0.00
2023-01-19T06:28:13.724Z,0.00
2023-01-19T06:29:13.762Z,0.00
2023-01-19T06:30:13.734Z,0.00
2023-01-19T06:31:13.763Z,0.00
2023-01-19T06:32:13.696Z,0.00
2023-01-19T06:33:13.676Z,0.00
2023-01-19T06:34:13.690Z,0.00
2023-01-19T06:35:13.653Z,0.00
2023-01-19T06:36:13.647Z,0.00
2023-01-19T06:37:13.635Z,0.00
2023-01-19T06:38:13.638Z,0.00
2023-01-19T06:39:13.604Z,0.00
2023-01-19T06:40:14.508Z,0.00
2023-01-19T06:41:13.584Z,0.00
2023-01-19T06:42:13.584Z,0.00
2023-01-19T06:43:13.573Z,0.00
2023-01-19T06:44:13.563Z,0.00
2023-01-19T06:45:13.572Z,0.00
2023-01-19T06:46:13.569Z,0.00
2023-01-19T06:47:15.433Z,0.00
2023-01-19T06:48:13.517Z,0.00
2023-01-19T06:49:13.505Z,0.00
2023-01-19T06:50:13.534Z,0.00
2023-01-19T06:51:13.475Z,0.00
2023-01-19T06:52:13.463Z,0.00
2023-01-19T06:53:13.452Z,0.00
2023-01-19T06:54:13.444Z,0.00
2023-01-19T06:55:13.439Z,0.00
2023-01-19T06:56:13.452Z,0.00
2023-01-19T06:57:13.417Z,0.00
2023-01-19T06:58:13.423Z,0.00
2023-01-19T06:59:13.391Z,0.00
2023-01-19T07:00:13.380Z,0.00
2023-01-19T07:01:13.476Z,0.00
2023-01-19T07:02:27.864Z,4.00
2023-01-19T07:03:14.401Z,4.00
2023-01-19T07:04:13.336Z,0.00
2023-01-19T07:05:13.333Z,4.00
2023-01-19T07:06:13.338Z,4.00
2023-01-19T07:07:13.314Z,4.00
2023-01-19T07:08:13.311Z,4.00
2023-01-19T07:09:14.214Z,4.00
2023-01-19T07:10:13.282Z,8.00
2023-01-19T07:11:26.263Z,12.00
2023-01-19T07:12:14.243Z,12.00
2023-01-19T07:13:13.261Z,12.00
2023-01-19T07:14:13.226Z,12.00
2023-01-19T07:15:13.219Z,12.00
2023-01-19T07:16:13.388Z,16.00
2023-01-19T07:17:13.193Z,16.00
2023-01-19T07:18:13.218Z,16.00
2023-01-19T07:19:13.174Z,16.00
2023-01-19T07:20:13.165Z,20.00
2023-01-19T07:21:13.163Z,20.00
2023-01-19T07:22:13.160Z,24.00
2023-01-19T07:23:13.124Z,24.00
2023-01-19T07:24:13.134Z,32.00
2023-01-19T07:25:13.111Z,40.00
2023-01-19T07:26:13.093Z,52.00
2023-01-19T07:27:13.092Z,52.00
2023-01-19T07:28:13.082Z,44.00
2023-01-19T07:29:13.088Z,40.00
2023-01-19T07:30:13.094Z,44.00
2023-01-19T07:31:13.152Z,56.00
2023-01-19T07:32:13.033Z,60.00
2023-01-19T07:33:13.022Z,64.00
2023-01-19T07:34:13.013Z,80.00
2023-01-19T07:35:13.001Z,80.00
2023-01-19T07:36:13.019Z,92.00
2023-01-19T07:37:12.992Z,92.00
2023-01-19T07:38:12.963Z,92.00
2023-01-19T07:39:12.976Z,112.00
2023-01-19T07:40:22.159Z,108.00
2023-01-19T07:41:12.939Z,120.00
2023-01-19T07:42:12.952Z,124.00
2023-01-19T07:43:12.912Z,124.00
2023-01-19T07:44:12.900Z,152.00
2023-01-19T07:45:12.893Z,164.00
2023-01-19T07:46:12.911Z,164.00
2023-01-19T07:47:12.875Z,172.00
2023-01-19T07:48:12.882Z,188.00
2023-01-19T07:49:12.848Z,216.00
2023-01-19T07:50:12.845Z,256.00
2023-01-19T07:51:13.206Z,312.00
2023-01-19T07:52:12.832Z,348.00
2023-01-19T07:53:12.801Z,372.00
2023-01-19T07:54:12.819Z,436.00
2023-01-19T07:55:12.784Z,556.00
2023-01-19T07:56:12.774Z,560.00
2023-01-19T07:57:12.801Z,584.00
2023-01-19T07:58:12.749Z,688.00
2023-01-19T07:59:12.761Z,648.00
2023-01-19T08:00:12.729Z,808.00
2023-01-19T08:01:12.840Z,788.00
2023-01-19T08:02:12.774Z,768.00
2023-01-19T08:03:12.721Z,828.00
2023-01-19T08:04:12.796Z,848.00
2023-01-19T08:05:12.703Z,848.00
2023-01-19T08:06:12.679Z,736.00
2023-01-19T08:07:12.660Z,740.00
2023-01-19T08:08:12.640Z,780.00
2023-01-19T08:09:12.659Z,772.00
2023-01-19T08:10:12.624Z,724.00
2023-01-19T08:11:12.610Z,636.00
2023-01-19T08:12:12.603Z,564.00
2023-01-19T08:13:12.588Z,552.00
2023-01-19T08:14:12.600Z,492.00
2023-01-19T08:15:12.561Z,488.00
2023-01-19T08:16:12.609Z,456.00
2023-01-19T08:17:12.548Z,444.00
2023-01-19T08:18:12.532Z,512.00
2023-01-19T08:19:12.545Z,468.00
2023-01-19T08:20:12.532Z,500.00
2023-01-19T08:21:12.544Z,508.00
2023-01-19T08:22:12.487Z,540.00
2023-01-19T08:23:12.480Z,596.00
2023-01-19T08:24:12.487Z,608.00
2023-01-19T08:25:12.502Z,648.00
2023-01-19T08:26:12.446Z,736.00
2023-01-19T08:27:12.440Z,748.00
2023-01-19T08:28:12.433Z,776.00
2023-01-19T08:29:12.424Z,696.00
2023-01-19T08:30:12.415Z,584.00
2023-01-19T08:31:20.450Z,552.00
2023-01-19T08:32:13.461Z,584.00
2023-01-19T08:33:12.386Z,668.00
2023-01-19T08:34:12.368Z,692.00
2023-01-19T08:35:12.379Z,668.00
2023-01-19T08:36:12.339Z,724.00
2023-01-19T08:37:12.329Z,828.00
2023-01-19T08:38:12.325Z,980.00
2023-01-19T08:39:12.338Z,1020.00
2023-01-19T08:40:12.328Z,1152.00
2023-01-19T08:41:12.300Z,1144.00
2023-01-19T08:42:12.279Z,1160.00
2023-01-19T08:43:12.276Z,1208.00
2023-01-19T08:44:12.267Z,1104.00
2023-01-19T08:45:12.240Z,908.00
2023-01-19T08:46:12.320Z,808.00
2023-01-19T08:47:12.291Z,808.00
2023-01-19T08:48:12.218Z,824.00
2023-01-19T08:49:12.205Z,864.00
2023-01-19T08:50:12.189Z,980.00
2023-01-19T08:51:12.191Z,1096.00
2023-01-19T08:52:12.189Z,1164.00
2023-01-19T08:53:12.170Z,1240.00
2023-01-19T08:54:12.146Z,1240.00
2023-01-19T08:55:12.140Z,1276.00
2023-01-19T08:56:12.167Z,1460.00
2023-01-19T08:57:12.115Z,1368.00
2023-01-19T08:58:12.106Z,1484.00
2023-01-19T08:59:13.207Z,1492.00
2023-01-19T09:00:12.077Z,1484.00
2023-01-19T09:01:12.209Z,1592.00
2023-01-19T09:02:12.100Z,1708.00
2023-01-19T09:03:12.175Z,1728.00
2023-01-19T09:04:12.039Z,1456.00
2023-01-19T09:05:12.028Z,1432.00
2023-01-19T09:06:12.064Z,1548.00
2023-01-19T09:07:12.012Z,1472.00
2023-01-19T09:08:12.018Z,1360.00
2023-01-19T09:09:11.993Z,1352.00
2023-01-19T09:10:11.985Z,1564.00
2023-01-19T09:11:11.982Z,1568.00
2023-01-19T09:12:11.974Z,1404.00
2023-01-19T09:13:11.957Z,1336.00
2023-01-19T09:14:11.992Z,1392.00
2023-01-19T09:15:11.930Z,1580.00
2023-01-19T09:16:11.922Z,1208.00
2023-01-19T09:17:11.927Z,1016.00
2023-01-19T09:18:11.888Z,844.00
2023-01-19T09:19:11.921Z,828.00
2023-01-19T09:20:11.877Z,1024.00
2023-01-19T09:21:11.861Z,1124.00
2023-01-19T09:22:11.850Z,1064.00
2023-01-19T09:23:11.856Z,952.00
2023-01-19T09:24:11.845Z,860.00
2023-01-19T09:25:11.827Z,824.00
2023-01-19T09:26:11.815Z,872.00
2023-01-19T09:27:11.796Z,1004.00
2023-01-19T09:28:11.783Z,1216.00
2023-01-19T09:29:11.798Z,1232.00
2023-01-19T09:30:11.790Z,1520.00
2023-01-19T09:31:11.816Z,1428.00
2023-01-19T09:32:11.765Z,1836.00
2023-01-19T09:33:11.738Z,1276.00
2023-01-19T09:34:11.740Z,1536.00
2023-01-19T09:35:11.717Z,1796.00
2023-01-19T09:36:11.714Z,1876.00
2023-01-19T09:37:11.695Z,2564.00
2023-01-19T09:38:11.678Z,2556.00
2023-01-19T09:39:11.695Z,2348.00
2023-01-19T09:40:11.677Z,2636.00
2023-01-19T09:41:11.656Z,2860.00
2023-01-19T09:42:11.638Z,3096.00
2023-01-19T09:43:11.625Z,2840.00
2023-01-19T09:44:11.605Z,2636.00
2023-01-19T09:45:12.253Z,3116.00
2023-01-19T09:46:11.665Z,3116.00
2023-01-19T09:47:11.578Z,3344.00
2023-01-19T09:48:11.568Z,3484.00
2023-01-19T09:49:11.563Z,3384.00
2023-01-19T09:50:11.544Z,3176.00
2023-01-19T09:51:11.537Z,2908.00
2023-01-19T09:52:11.548Z,3000.00
2023-01-19T09:53:11.535Z,3220.00
2023-01-19T09:54:11.525Z,3264.00
2023-01-19T09:55:11.509Z,3352.00
2023-01-19T09:56:11.499Z,3580.00
2023-01-19T09:57:11.481Z,3732.00
2023-01-19T09:58:11.459Z,3840.00
2023-01-19T09:59:11.448Z,3992.00
2023-01-19T10:00:11.439Z,4076.00
2023-01-19T10:01:11.547Z,4096.00
2023-01-19T10:02:11.412Z,4244.00
2023-01-19T10:03:11.489Z,4256.00
2023-01-19T10:04:11.395Z,4260.00
2023-01-19T10:05:11.380Z,4328.00
2023-01-19T10:06:11.406Z,4232.00
2023-01-19T10:07:11.370Z,4068.00
2023-01-19T10:08:11.354Z,3948.00
2023-01-19T10:09:11.347Z,3960.00
2023-01-19T10:10:11.329Z,3840.00
2023-01-19T10:11:11.318Z,4004.00
2023-01-19T10:12:11.327Z,4084.00
2023-01-19T10:13:11.317Z,4436.00
2023-01-19T10:14:11.301Z,4644.00
2023-01-19T10:15:11.290Z,4764.00
2023-01-19T10:16:11.307Z,4900.00
2023-01-19T10:17:11.248Z,5072.00
2023-01-19T10:18:11.245Z,5252.00
2023-01-19T10:19:11.256Z,5220.00
2023-01-19T10:20:11.216Z,5144.00
2023-01-19T10:21:11.223Z,5120.00
2023-01-19T10:22:11.196Z,5164.00
2023-01-19T10:23:11.221Z,5132.00
2023-01-19T10:24:11.220Z,5028.00
2023-01-19T10:25:11.166Z,5216.00
2023-01-19T10:26:11.165Z,5348.00
2023-01-19T10:27:11.150Z,5464.00
2023-01-19T10:28:11.165Z,5684.00
2023-01-19T10:29:11.814Z,5892.00
2023-01-19T10:30:11.147Z,6196.00
2023-01-19T10:31:11.174Z,6804.00
2023-01-19T10:32:11.146Z,6936.00
2023-01-19T10:33:11.108Z,7168.00
2023-01-19T10:34:11.097Z,7152.00
2023-01-19T10:35:11.066Z,6760.00
2023-01-19T10:36:11.049Z,6488.00
2023-01-19T10:37:11.035Z,6512.00
2023-01-19T10:38:11.071Z,6384.00
2023-01-19T10:39:11.064Z,5956.00
2023-01-19T10:40:11.066Z,6188.00
2023-01-19T10:41:11.065Z,6272.00
2023-01-19T10:42:11.006Z,5784.00
2023-01-19T10:43:10.975Z,5044.00
2023-01-19T10:44:11.013Z,5264.00
2023-01-19T10:45:10.985Z,4860.00
2023-01-19T10:46:11.010Z,4868.00
2023-01-19T10:47:10.936Z,4564.00
2023-01-19T10:48:10.913Z,4560.00
2023-01-19T10:49:10.916Z,5224.00
2023-01-19T10:50:10.974Z,5688.00
2023-01-19T10:51:10.906Z,5720.00
2023-01-19T10:52:10.885Z,6064.00
2023-01-19T10:53:10.888Z,6232.00
2023-01-19T10:54:10.907Z,6036.00
2023-01-19T10:55:10.899Z,6184.00
2023-01-19T10:56:10.828Z,8356.00
2023-01-19T10:57:10.817Z,7732.00
2023-01-19T10:58:10.881Z,8768.00
2023-01-19T10:59:10.797Z,7748.00
2023-01-19T11:00:10.881Z,9164.00
2023-01-19T11:01:10.889Z,6728.00
2023-01-19T11:02:10.947Z,8652.00
2023-01-19T11:03:10.862Z,8096.00
2023-01-19T11:04:10.744Z,9100.00
2023-01-19T11:05:10.736Z,8508.00
2023-01-19T11:06:10.739Z,7976.00
2023-01-19T11:07:10.715Z,7692.00
2023-01-19T11:08:10.698Z,7568.00
2023-01-19T11:09:10.696Z,7332.00
2023-01-19T11:10:10.682Z,7416.00
2023-01-19T11:11:10.668Z,6676.00
2023-01-19T11:12:10.675Z,6432.00
2023-01-19T11:13:10.650Z,5436.00
2023-01-19T11:14:10.632Z,4904.00
2023-01-19T11:15:10.656Z,5056.00
2023-01-19T11:16:12.389Z,4976.00
2023-01-19T11:17:10.596Z,5436.00
2023-01-19T11:18:10.595Z,5448.00
2023-01-19T11:19:10.576Z,8408.00
2023-01-19T11:20:10.596Z,8684.00
2023-01-19T11:21:10.586Z,8856.00
2023-01-19T11:22:10.547Z,8336.00
2023-01-19T11:23:10.542Z,8964.00
2023-01-19T11:24:10.527Z,9288.00
2023-01-19T11:25:10.539Z,9088.00
2023-01-19T11:26:10.499Z,9120.00
2023-01-19T11:27:10.496Z,9600.00
2023-01-19T11:28:10.484Z,9956.00
2023-01-19T11:29:10.465Z,9848.00
2023-01-19T11:30:10.535Z,9816.00
2023-01-19T11:31:10.513Z,10660.00
2023-01-19T11:32:10.533Z,11144.00
2023-01-19T11:33:10.418Z,11092.00
2023-01-19T11:34:10.415Z,11676.00
2023-01-19T11:35:10.418Z,10540.00
2023-01-19T11:36:10.388Z,13276.00
2023-01-19T11:37:10.377Z,16672.00
2023-01-19T11:38:10.376Z,14676.00
2023-01-19T11:39:10.359Z,8972.00
2023-01-19T11:40:10.347Z,9424.00
2023-01-19T11:41:10.359Z,7304.00
2023-01-19T11:42:10.330Z,10056.00
2023-01-19T11:43:10.316Z,8632.00
2023-01-19T11:44:10.310Z,4940.00
2023-01-19T11:45:10.309Z,4600.00
2023-01-19T11:46:10.289Z,4524.00
2023-01-19T11:47:10.276Z,4536.00
2023-01-19T11:48:10.274Z,5408.00
2023-01-19T11:49:10.250Z,5604.00
2023-01-19T11:50:10.268Z,5632.00
2023-01-19T11:51:10.230Z,9008.00
2023-01-19T11:52:10.229Z,9844.00
2023-01-19T11:53:10.210Z,8636.00
2023-01-19T11:54:10.198Z,10384.00
2023-01-19T11:55:10.207Z,8908.00
2023-01-19T11:56:10.219Z,7556.00
2023-01-19T11:57:10.203Z,7348.00
2023-01-19T11:58:10.161Z,7520.00
2023-01-19T11:59:10.170Z,5900.00
2023-01-19T12:00:10.209Z,9112.00
2023-01-19T12:01:10.178Z,8244.00
2023-01-19T12:02:10.144Z,7884.00
2023-01-19T12:03:10.166Z,9472.00
2023-01-19T12:04:10.097Z,11224.00
2023-01-19T12:05:10.080Z,11416.00
2023-01-19T12:06:10.105Z,7952.00
2023-01-19T12:07:10.050Z,9696.00
2023-01-19T12:08:10.047Z,11096.00
2023-01-19T12:09:10.043Z,10716.00
2023-01-19T12:10:10.029Z,12364.00
2023-01-19T12:11:10.011Z,12104.00
2023-01-19T12:12:10.038Z,6744.00
2023-01-19T12:13:09.989Z,7824.00
2023-01-19T12:14:10.024Z,12692.00
2023-01-19T12:15:09.970Z,12092.00
2023-01-19T12:16:10.034Z,9828.00
2023-01-19T12:17:09.951Z,12052.00
2023-01-19T12:18:09.947Z,12428.00
2023-01-19T12:19:09.940Z,11784.00
2023-01-19T12:20:09.922Z,6180.00
2023-01-19T12:21:09.932Z,11792.00
2023-01-19T12:22:09.901Z,11988.00
2023-01-19T12:23:09.881Z,6128.00
2023-01-19T12:24:09.925Z,11444.00
2023-01-19T12:25:09.862Z,10876.00
2023-01-19T12:26:09.882Z,10744.00
2023-01-19T12:27:09.841Z,9568.00
2023-01-19T12:28:09.845Z,10632.00
2023-01-19T12:29:09.821Z,10548.00
2023-01-19T12:30:09.829Z,5316.00
2023-01-19T12:31:09.880Z,8208.00
2023-01-19T12:32:09.827Z,11728.00
2023-01-19T12:33:09.792Z,12628.00
2023-01-19T12:34:09.770Z,14056.00
2023-01-19T12:35:09.779Z,9376.00
2023-01-19T12:36:09.774Z,7580.00
2023-01-19T12:37:09.770Z,10428.00
2023-01-19T12:38:09.728Z,6908.00
2023-01-19T12:39:09.710Z,11424.00
2023-01-19T12:40:09.701Z,9396.00
2023-01-19T12:41:09.682Z,6048.00
2023-01-19T12:42:09.680Z,6804.00
2023-01-19T12:43:09.690Z,8712.00
2023-01-19T12:44:09.665Z,13356.00
2023-01-19T12:45:09.648Z,6580.00
2023-01-19T12:46:09.697Z,5760.00
2023-01-19T12:47:09.629Z,5928.00